Navios Pollux — 3FPO2 — position and weather

sailwx.info

Track history (hours):
 
Tides and Currents Weather Stations Pressure Air Temp Water Temp Dewpoint Dewpoint Depression Visibility Wind Speed Wind Dir Waves Ship Positions

Navios Pollux

Last reported at 2015-Aug-29 04:31 UTC. Time now 2015-Sep-03 10:53 UTC.
Position N 01°15' E 104°08'.

Length 292 m; draft 18.2 m.

Type: Ship. MMSI: 370290000.

Date/timePositionNaut miles runAvg speedWind from/ knotsBaromVisibWave heightAir tempDewpointWater temp
2015-Aug-29 04:31N 01°15' E 104°08'1010.2
2015-Aug-29 03:33N 01°14' E 103°58'9 8.8
2015-Aug-29 02:33N 01°11' E 103°50'8 7.9
2015-Aug-29 01:33N 01°06' E 103°44'112 8.0
2015-Aug-28 11:33N 01°58' E 102°05'3110.2
2015-Aug-28 08:33N 02°14' E 101°38'17 8.4
2015-Aug-28 06:33N 02°29' E 101°32'17 8.4
2015-Aug-28 04:33N 02°38' E 101°17'15 7.7
2015-Aug-28 02:33N 02°45' E 101°04'15 7.7
2015-Aug-28 00:33N 02°52' E 100°50'16 7.9
2015-Aug-27 22:33N 03°02' E 100°38'18 9.1
2015-Aug-27 20:32N 03°15' E 100°25'30 9.9
2015-Aug-27 17:32N 03°36' E 100°04'38 9.6
2015-Aug-27 13:33N 04°04' E 099°38'9 8.6
2015-Aug-27 12:33N 04°10' E 099°31'  
Track history (hours):
 
Tides and Currents Weather Stations Pressure Air Temp Water Temp Dewpoint Dewpoint Depression Visibility Wind Speed Wind Dir Waves Ship Positions

Navios Pollux

Last reported at 2015-Aug-29 04:31 UTC. Time now 2015-Sep-03 10:53 UTC.
Position N 01°15' E 104°08'.

Length 292 m; draft 18.2 m.

Type: Ship. MMSI: 370290000.

Date/timePositionNaut miles runAvg speedWind from/ knotsBaromVisibWave heightAir tempDewpointWater temp
2015-Aug-29 04:31N 01°15' E 104°08'1010.2
2015-Aug-29 03:33N 01°14' E 103°58'9 8.8
2015-Aug-29 02:33N 01°11' E 103°50'8 7.9
2015-Aug-29 01:33N 01°06' E 103°44'112 8.0
2015-Aug-28 11:33N 01°58' E 102°05'3110.2
2015-Aug-28 08:33N 02°14' E 101°38'17 8.4
2015-Aug-28 06:33N 02°29' E 101°32'17 8.4
2015-Aug-28 04:33N 02°38' E 101°17'15 7.7
2015-Aug-28 02:33N 02°45' E 101°04'15 7.7
2015-Aug-28 00:33N 02°52' E 100°50'16 7.9
2015-Aug-27 22:33N 03°02' E 100°38'18 9.1
2015-Aug-27 20:32N 03°15' E 100°25'30 9.9
2015-Aug-27 17:32N 03°36' E 100°04'38 9.6
2015-Aug-27 13:33N 04°04' E 099°38'9 8.6
2015-Aug-27 12:33N 04°10' E 099°31'  

Dump ship's entire track history